Time;durP1;ratioP1;P1;durP2;ratioP2;P2;SDS_P1;SDS_P2;PMS_P1;PMS_P2;Temp;Humidity;BMP_temperature;BMP_pressure;BME280_temperature;BME280_humidity;BME280_pressure;Samples;Min_cycle;Max_cycle;Signal;HPM_P1;HPM_P2
2022/07/04 00:01:02;;;;;;;3.53;1.85;;;21.00;99.90;;;;;;4861846;29;20523;-75
2022/07/04 00:03:29;;;;;;;4.28;1.63;;;21.00;99.90;;;;;;4878509;29;20117;-76
2022/07/04 00:05:57;;;;;;;4.47;1.63;;;21.00;99.90;;;;;;4846183;29;20056;-76
2022/07/04 00:08:24;;;;;;;4.53;1.27;;;21.00;99.90;;;;;;4878947;29;20053;-76
2022/07/04 00:10:51;;;;;;;6.05;1.85;;;21.00;99.90;;;;;;4878375;29;20540;-76
2022/07/04 00:13:18;;;;;;;4.35;1.55;;;21.00;99.90;;;;;;4878233;29;20144;-76
2022/07/04 00:15:46;;;;;;;4.72;1.80;;;21.00;99.90;;;;;;4861823;29;20577;-76
2022/07/04 00:18:15;;;;;;;3.17;1.60;;;20.90;99.90;;;;;;4877501;29;20493;-76
2022/07/04 00:20:42;;;;;;;4.50;1.60;;;20.90;99.90;;;;;;4878335;29;20053;-76
2022/07/04 00:23:10;;;;;;;3.45;1.60;;;20.80;99.90;;;;;;4877767;29;20057;-76
2022/07/04 00:25:37;;;;;;;2.88;1.73;;;20.80;99.90;;;;;;4861291;29;20060;-76
2022/07/04 00:28:05;;;;;;;2.75;1.80;;;20.80;99.90;;;;;;4861411;29;20059;-76
2022/07/04 00:30:32;;;;;;;2.67;1.77;;;20.80;99.90;;;;;;4861262;29;20068;-76
2022/07/04 00:32:59;;;;;;;2.60;1.42;;;20.80;99.90;;;;;;4877867;29;20057;-76
2022/07/04 00:35:28;;;;;;;4.53;1.63;;;20.80;99.90;;;;;;4861436;29;20057;-76
2022/07/04 00:37:56;;;;;;;4.30;1.73;;;20.80;99.90;;;;;;4878124;29;20068;-76
2022/07/04 00:40:23;;;;;;;4.05;1.42;;;20.80;99.90;;;;;;4861360;29;20053;-76
2022/07/04 00:42:50;;;;;;;7.38;1.95;;;20.80;99.90;;;;;;4877992;29;20049;-76
2022/07/04 00:45:19;;;;;;;2.10;1.40;;;20.80;99.90;;;;;;4877890;29;20080;-76
2022/07/04 00:47:46;;;;;;;3.50;2.05;;;20.80;99.90;;;;;;4877781;29;20061;-76
2022/07/04 00:50:13;;;;;;;2.80;2.00;;;20.80;99.90;;;;;;4877723;29;20081;-76
2022/07/04 00:52:42;;;;;;;4.40;1.60;;;20.70;99.90;;;;;;4861140;29;20139;-76
2022/07/04 00:55:11;;;;;;;2.72;1.88;;;20.70;99.90;;;;;;4860905;29;20541;-76
2022/07/04 00:57:38;;;;;;;4.63;1.50;;;20.70;99.90;;;;;;4877386;29;20064;-76
2022/07/04 01:00:07;;;;;;;3.20;1.70;;;20.70;99.90;;;;;;4860634;29;20087;-76
2022/07/04 01:02:34;;;;;;;6.63;4.28;;;20.70;99.90;;;;;;4877333;29;20077;-76
2022/07/04 01:05:01;;;;;;;4.30;1.85;;;20.60;99.90;;;;;;4860402;29;20056;-76
2022/07/04 01:07:30;;;;;;;4.40;2.05;;;20.60;99.90;;;;;;4860949;29;20061;-76
2022/07/04 01:09:59;;;;;;;6.13;1.90;;;20.60;99.90;;;;;;4861178;29;20447;-76
2022/07/04 01:12:27;;;;;;;2.90;1.52;;;20.60;99.90;;;;;;4877657;29;20057;-76
2022/07/04 01:14:55;;;;;;;4.18;1.50;;;20.50;99.90;;;;;;4861174;29;20057;-76
2022/07/04 01:17:22;;;;;;;3.47;1.77;;;20.50;99.90;;;;;;4860172;29;20060;-76
2022/07/04 01:19:49;;;;;;;6.13;1.60;;;20.50;99.90;;;;;;4860615;29;20052;-75
2022/07/04 01:22:19;;;;;;;5.95;1.90;;;20.50;99.90;;;;;;4877052;29;20502;-76
2022/07/04 01:24:46;;;;;;;5.60;2.13;;;20.50;99.90;;;;;;4877230;29;20053;-76
2022/07/04 01:27:15;;;;;;;1.98;1.80;;;20.60;99.90;;;;;;4876977;29;20061;-77
2022/07/04 01:29:42;;;;;;;3.03;1.40;;;20.60;99.90;;;;;;4876727;29;20120;-76
2022/07/04 01:32:10;;;;;;;5.82;1.73;;;20.60;99.90;;;;;;4876813;29;20101;-76
2022/07/04 01:34:38;;;;;;;4.32;1.65;;;20.70;99.90;;;;;;4860380;29;20053;-76
2022/07/04 01:37:07;;;;;;;4.82;1.70;;;20.80;99.90;;;;;;4860089;29;20474;-76
2022/07/04 01:39:35;;;;;;;6.22;1.90;;;20.80;99.90;;;;;;4860273;29;20088;-75
2022/07/04 01:42:03;;;;;;;4.40;1.50;;;20.90;99.90;;;;;;4877039;29;20053;-76
2022/07/04 01:44:31;;;;;;;4.43;1.30;;;20.90;99.90;;;;;;4860056;29;20053;-76
2022/07/04 01:46:58;;;;;;;3.25;1.67;;;21.00;99.90;;;;;;4844555;29;20542;-76
2022/07/04 01:49:25;;;;;;;10.38;1.70;;;21.00;99.90;;;;;;4876870;29;20140;-76
2022/07/04 01:51:53;;;;;;;1.88;1.35;;;21.00;99.90;;;;;;4859669;29;20051;-76
2022/07/04 01:54:21;;;;;;;6.40;1.83;;;21.10;99.90;;;;;;4876585;29;20049;-75
2022/07/04 01:56:49;;;;;;;2.03;1.55;;;21.10;99.90;;;;;;4859514;29;20059;-76
2022/07/04 01:59:17;;;;;;;6.28;1.70;;;21.20;99.90;;;;;;4877056;29;20056;-76
2022/07/04 02:01:43;;;;;;;4.40;1.50;;;21.20;99.90;;;;;;4860419;29;20053;-76
2022/07/04 02:04:10;;;;;;;6.07;1.95;;;21.20;99.90;;;;;;4859891;29;20064;-76
2022/07/04 02:06:37;;;;;;;6.18;1.70;;;21.20;99.90;;;;;;4876706;29;20057;-76
2022/07/04 02:09:17;;;;;;;4.93;1.80;;;21.20;99.90;;;;;;4844762;29;20056;-76
2022/07/04 02:14:27;;;;;;;3.95;2.10;;;21.10;99.90;;;;;;4854661;29;20498;-76
2022/07/04 02:16:55;;;;;;;4.10;1.80;;;21.00;99.90;;;;;;4844735;29;20622;-76
2022/07/04 02:19:22;;;;;;;6.15;1.70;;;21.00;99.90;;;;;;4876971;29;20068;-75
2022/07/04 02:21:49;;;;;;;7.68;2.25;;;21.00;99.90;;;;;;4876417;29;20084;-77
2022/07/04 02:24:17;;;;;;;3.25;1.42;;;20.90;99.90;;;;;;4876384;29;20049;-75
2022/07/04 02:26:44;;;;;;;6.03;1.58;;;20.90;99.90;;;;;;4844430;29;20053;-76
2022/07/04 02:29:12;;;;;;;5.68;1.80;;;20.80;99.90;;;;;;4862035;29;20421;-77
2022/07/04 02:31:40;;;;;;;4.88;1.85;;;20.80;99.90;;;;;;4880275;29;20140;-75
2022/07/04 02:34:08;;;;;;;4.88;2.22;;;20.80;99.90;;;;;;4863307;29;20051;-76
2022/07/04 02:36:35;;;;;;;3.80;1.73;;;20.70;99.90;;;;;;4879753;29;20045;-76
2022/07/04 02:39:02;;;;;;;4.30;1.98;;;20.70;99.90;;;;;;4863533;29;20601;-77
2022/07/04 02:41:30;;;;;;;7.50;1.90;;;20.80;99.90;;;;;;4879701;29;20094;-76
2022/07/04 02:43:57;;;;;;;4.85;2.10;;;20.70;99.90;;;;;;4879927;29;20083;-76
2022/07/04 02:46:24;;;;;;;3.97;2.10;;;20.80;99.90;;;;;;4879855;29;20096;-76
2022/07/04 02:48:53;;;;;;;7.35;1.95;;;20.80;99.90;;;;;;4863062;29;20052;-77
2022/07/04 02:51:20;;;;;;;7.40;2.20;;;20.80;99.90;;;;;;4862901;29;20069;-77
2022/07/04 02:53:47;;;;;;;4.78;2.40;;;20.80;99.90;;;;;;4862095;29;20049;-77
2022/07/04 02:56:15;;;;;;;5.60;2.30;;;20.80;99.90;;;;;;4879502;29;20137;-76
2022/07/04 02:58:42;;;;;;;7.40;2.15;;;20.80;99.90;;;;;;4880060;29;20049;-77
2022/07/04 03:01:10;;;;;;;5.75;1.90;;;20.70;99.90;;;;;;4879988;29;20447;-77
2022/07/04 03:03:37;;;;;;;6.07;2.17;;;20.80;99.90;;;;;;4862513;29;20063;-77
2022/07/04 03:06:06;;;;;;;9.18;2.90;;;20.80;99.90;;;;;;4880083;29;20537;-77
2022/07/04 03:08:33;;;;;;;7.32;2.10;;;20.80;99.90;;;;;;4879703;29;20053;-77
2022/07/04 03:11:01;;;;;;;6.38;2.28;;;20.80;99.90;;;;;;4862854;29;20076;-77
2022/07/04 03:13:28;;;;;;;5.90;1.77;;;20.80;99.90;;;;;;4879766;29;20052;-77
2022/07/04 03:15:56;;;;;;;6.45;2.03;;;20.90;99.90;;;;;;4879393;29;20088;-77
2022/07/04 03:18:23;;;;;;;6.15;1.83;;;20.90;99.90;;;;;;4879267;29;20057;-77
2022/07/04 03:20:50;;;;;;;7.65;2.80;;;21.00;99.90;;;;;;4879685;29;20429;-77
2022/07/04 03:23:19;;;;;;;5.50;2.08;;;21.00;99.90;;;;;;4879115;29;20052;-77
2022/07/04 03:25:46;;;;;;;8.43;2.60;;;21.10;99.90;;;;;;4847658;29;20045;-77
2022/07/04 03:28:14;;;;;;;3.75;1.73;;;21.20;99.90;;;;;;4879388;29;20160;-77
2022/07/04 03:30:41;;;;;;;3.72;2.05;;;21.30;99.90;;;;;;4879500;29;20047;-77
2022/07/04 03:33:08;;;;;;;6.60;1.73;;;21.40;99.90;;;;;;4879681;29;20060;-77
2022/07/04 03:35:36;;;;;;;3.05;1.80;;;21.50;99.90;;;;;;4862460;29;20053;-77
2022/07/04 03:38:03;;;;;;;3.10;1.67;;;21.60;99.90;;;;;;4879177;29;20049;-77
2022/07/04 03:40:32;;;;;;;5.82;1.80;;;21.60;99.90;;;;;;4861916;29;20049;-77
2022/07/04 03:43:00;;;;;;;9.50;2.20;;;21.70;99.90;;;;;;4878741;29;20148;-77
2022/07/04 03:45:27;;;;;;;5.07;1.80;;;21.80;99.90;;;;;;4878919;29;20441;-77
2022/07/04 03:47:54;;;;;;;3.60;1.77;;;21.80;99.90;;;;;;4862057;29;20526;-77
2022/07/04 03:50:22;;;;;;;5.35;2.40;;;21.80;99.90;;;;;;4862445;29;20056;-76
2022/07/04 03:52:49;;;;;;;3.20;1.75;;;21.70;99.90;;;;;;4879366;29;20061;-76
2022/07/04 03:55:17;;;;;;;5.18;1.95;;;21.60;99.90;;;;;;4879172;29;20434;-77
2022/07/04 03:57:45;;;;;;;5.60;1.90;;;21.50;99.90;;;;;;4861936;29;20049;-77
2022/07/04 04:00:14;;;;;;;7.57;2.20;;;21.40;99.90;;;;;;4879044;29;20057;-77
2022/07/04 04:02:41;;;;;;;4.20;2.28;;;21.30;99.90;;;;;;4878352;29;20061;-76
2022/07/04 04:05:26;;;;;;;6.60;2.10;;;21.20;99.90;;;;;;4877435;29;20063;-76
2022/07/04 04:07:54;;;;;;;5.60;2.30;;;21.10;99.90;;;;;;4878263;29;20101;-76
2022/07/04 04:10:22;;;;;;;5.80;2.33;;;21.10;99.90;;;;;;4861451;29;20454;-76
2022/07/04 04:12:50;;;;;;;5.78;2.40;;;21.00;99.90;;;;;;4878365;29;20514;-76
2022/07/04 04:15:18;;;;;;;4.07;2.13;;;21.00;99.90;;;;;;4878010;29;20056;-77
2022/07/04 04:17:45;;;;;;;5.55;2.47;;;21.10;99.90;;;;;;4862199;29;20474;-76
2022/07/04 04:20:12;;;;;;;9.70;2.85;;;21.10;99.90;;;;;;4878625;29;20060;-76
2022/07/04 04:22:39;;;;;;;9.60;2.53;;;21.20;99.90;;;;;;4861175;29;20148;-76
2022/07/04 04:25:08;;;;;;;4.80;2.42;;;21.40;99.90;;;;;;4860881;29;20139;-76
2022/07/04 04:27:35;;;;;;;5.20;3.00;;;21.40;99.90;;;;;;4861674;29;20124;-76
2022/07/04 04:30:05;;;;;;;5.93;3.10;;;21.40;99.90;;;;;;4861215;29;20097;-76
2022/07/04 04:32:32;;;;;;;4.47;2.67;;;21.40;99.90;;;;;;4861461;29;20346;-77
2022/07/04 04:35:00;;;;;;;3.75;1.98;;;21.50;99.90;;;;;;4861444;29;20223;-76
2022/07/04 04:37:27;;;;;;;5.32;2.55;;;21.50;99.90;;;;;;4861301;29;20135;-76
2022/07/04 04:39:54;;;;;;;4.75;2.67;;;21.60;99.90;;;;;;4861041;29;20049;-76
2022/07/04 04:42:22;;;;;;;5.25;2.58;;;21.70;99.90;;;;;;4860962;29;20052;-76
2022/07/04 04:44:49;;;;;;;6.70;2.35;;;21.80;99.90;;;;;;4877758;29;20095;-77
2022/07/04 04:47:18;;;;;;;7.65;2.67;;;21.80;99.90;;;;;;4860952;29;20454;-76
2022/07/04 04:49:45;;;;;;;15.52;2.95;;;21.90;99.90;;;;;;4877408;29;20053;-76
2022/07/04 04:52:13;;;;;;;7.82;2.78;;;22.00;99.90;;;;;;4860090;29;20122;-76
2022/07/04 04:54:40;;;;;;;8.90;2.88;;;22.10;99.90;;;;;;4877559;29;20056;-76
2022/07/04 04:57:08;;;;;;;6.70;2.70;;;22.20;99.90;;;;;;4845371;29;20506;-77
2022/07/04 04:59:35;;;;;;;10.30;3.05;;;22.20;99.90;;;;;;4861315;29;20052;-77
2022/07/04 05:02:03;;;;;;;6.05;2.35;;;22.20;99.90;;;;;;4860835;29;20092;-76
2022/07/04 05:04:32;;;;;;;10.75;2.85;;;22.30;99.90;;;;;;4860413;29;20471;-76
2022/07/04 05:06:59;;;;;;;9.05;2.83;;;22.30;99.90;;;;;;4877381;29;20093;-76
2022/07/04 05:09:27;;;;;;;6.88;3.25;;;22.30;99.90;;;;;;4860758;29;20052;-76
2022/07/04 05:11:54;;;;;;;8.25;3.35;;;22.40;99.90;;;;;;4877078;29;20088;-76
2022/07/04 05:14:21;;;;;;;10.68;3.20;;;22.40;99.90;;;;;;4877029;29;20565;-76
2022/07/04 05:16:48;;;;;;;8.85;3.72;;;22.50;99.90;;;;;;4860043;29;20053;-76
2022/07/04 05:19:16;;;;;;;10.85;3.33;;;22.50;99.90;;;;;;4860571;29;20077;-76
2022/07/04 05:21:44;;;;;;;9.07;3.00;;;22.60;99.90;;;;;;4877044;29;20076;-76
2022/07/04 05:24:12;;;;;;;7.07;3.25;;;22.70;99.90;;;;;;4877311;29;20069;-76
2022/07/04 05:26:39;;;;;;;6.03;2.50;;;22.80;99.90;;;;;;4876984;29;20041;-77
2022/07/04 05:29:06;;;;;;;4.68;2.72;;;22.90;99.90;;;;;;4877375;29;20068;-76
2022/07/04 05:31:34;;;;;;;5.10;2.70;;;23.00;99.90;;;;;;4859905;29;20052;-77
2022/07/04 05:34:01;;;;;;;8.88;2.92;;;23.10;99.90;;;;;;4859926;29;20144;-78
2022/07/04 05:36:29;;;;;;;8.02;2.78;;;23.20;99.90;;;;;;4876950;29;20059;-75
2022/07/04 05:38:58;;;;;;;6.13;2.58;;;23.30;99.90;;;;;;4859842;29;20105;-76
2022/07/04 05:41:26;;;;;;;5.97;2.90;;;23.40;99.90;;;;;;4860153;29;20132;-76
2022/07/04 05:43:53;;;;;;;8.45;2.88;;;23.60;99.90;;;;;;4876834;29;20049;-77
2022/07/04 05:46:20;;;;;;;8.13;2.85;;;24.00;99.90;;;;;;4860225;29;20092;-76
2022/07/04 05:48:47;;;;;;;8.13;2.75;;;24.40;99.90;;;;;;4859973;29;20064;-76
2022/07/04 05:51:14;;;;;;;10.32;3.28;;;25.00;99.90;;;;;;4876797;29;20541;-77
2022/07/04 05:53:42;;;;;;;9.02;2.92;;;25.40;99.90;;;;;;4860405;29;20061;-76
2022/07/04 05:56:10;;;;;;;8.32;3.05;;;25.80;99.90;;;;;;4876988;29;20077;-76
2022/07/04 05:58:37;;;;;;;9.93;3.22;;;26.20;99.90;;;;;;4859973;29;20140;-78
2022/07/04 06:01:05;;;;;;;8.95;2.95;;;26.60;99.90;;;;;;4876438;29;20226;-77
2022/07/04 06:03:32;;;;;;;16.48;2.90;;;27.00;99.90;;;;;;4859602;29;20053;-77
2022/07/04 06:05:59;;;;;;;10.48;3.67;;;27.30;99.90;;;;;;4876561;29;20589;-77
2022/07/04 06:08:26;;;;;;;5.95;3.00;;;27.60;99.90;;;;;;4876756;29;20060;-77
2022/07/04 06:10:53;;;;;;;9.13;2.70;;;27.80;99.50;;;;;;4876740;29;20577;-77
2022/07/04 06:13:22;;;;;;;4.78;2.40;;;28.20;98.40;;;;;;4876502;29;20053;-77
2022/07/04 06:15:51;;;;;;;13.60;2.60;;;28.60;97.70;;;;;;4859812;29;20617;-77
2022/07/04 06:18:18;;;;;;;9.82;3.00;;;29.10;94.10;;;;;;4860102;29;20060;-77
2022/07/04 06:20:46;;;;;;;7.05;3.03;;;29.30;90.60;;;;;;4859268;29;20482;-77
2022/07/04 06:23:13;;;;;;;11.27;2.65;;;29.50;88.30;;;;;;4859104;29;20053;-76
2022/07/04 06:25:41;;;;;;;5.80;2.97;;;29.70;86.50;;;;;;4876583;29;20158;-76
2022/07/04 06:28:08;;;;;;;6.70;2.63;;;29.70;84.90;;;;;;4844090;29;20124;-76
2022/07/04 06:30:36;;;;;;;6.93;2.47;;;29.50;85.00;;;;;;4876626;29;20057;-76
2022/07/04 06:33:04;;;;;;;7.30;2.22;;;29.70;82.90;;;;;;4859681;29;20049;-76
2022/07/04 06:35:49;;;;;;;7.00;2.60;;;29.90;82.40;;;;;;4876464;29;20510;-76
2022/07/04 06:38:18;;;;;;;5.90;2.38;;;30.00;79.80;;;;;;4876227;29;20065;-76
2022/07/04 06:40:46;;;;;;;5.68;2.65;;;30.00;81.50;;;;;;4877104;29;20057;-78
2022/07/04 06:43:13;;;;;;;5.80;2.47;;;30.30;80.20;;;;;;4876215;29;20391;-76
2022/07/04 06:45:42;;;;;;;5.72;3.00;;;30.50;78.30;;;;;;4876497;29;20057;-76
2022/07/04 06:48:09;;;;;;;17.88;4.53;;;31.00;76.30;;;;;;4876438;29;20129;-76
2022/07/04 06:50:37;;;;;;;10.45;2.97;;;31.50;74.70;;;;;;4876220;29;20053;-76
2022/07/04 06:53:06;;;;;;;9.57;2.38;;;31.90;74.40;;;;;;4859420;29;20429;-77
2022/07/04 06:55:37;;;;;;;8.10;3.70;;;32.30;73.00;;;;;;4876788;29;20151;-76
2022/07/04 06:58:06;;;;;;;11.20;3.30;;;32.50;70.30;;;;;;4875962;29;20061;-76
2022/07/04 07:00:34;;;;;;;12.20;3.55;;;32.60;69.70;;;;;;4876504;29;20067;-76
2022/07/04 07:03:04;;;;;;;15.50;3.40;;;33.00;69.30;;;;;;4891096;29;20052;-76
2022/07/04 07:05:31;;;;;;;9.05;3.70;;;33.40;67.20;;;;;;4877378;29;20060;-76
2022/07/04 07:07:59;;;;;;;13.02;3.35;;;33.70;65.30;;;;;;4877683;29;20056;-77
2022/07/04 07:10:26;;;;;;;6.00;2.92;;;34.00;63.30;;;;;;4862778;29;20057;-77
2022/07/04 07:12:53;;;;;;;9.05;3.28;;;34.10;62.40;;;;;;4894197;29;20044;-76
2022/07/04 07:15:20;;;;;;;7.25;2.30;;;34.20;61.50;;;;;;4880382;29;20463;-77
2022/07/04 07:17:48;;;;;;;6.93;2.15;;;34.30;62.10;;;;;;4897940;29;20105;-76
2022/07/04 07:20:17;;;;;;;7.47;2.55;;;34.40;61.70;;;;;;4898280;29;20112;-76
2022/07/04 07:22:44;;;;;;;8.82;2.30;;;34.70;59.70;;;;;;4898069;29;20532;-76
2022/07/04 07:25:12;;;;;;;8.05;2.25;;;34.90;58.40;;;;;;4888553;29;20143;-76
2022/07/04 07:27:40;;;;;;;6.78;2.20;;;34.60;58.70;;;;;;4914250;29;20581;-76
2022/07/04 07:30:09;;;;;;;8.98;2.88;;;34.70;57.20;;;;;;4898778;29;20059;-75
2022/07/04 07:32:36;;;;;;;10.45;2.30;;;34.40;57.20;;;;;;4897724;29;20056;-76
2022/07/04 07:35:05;;;;;;;9.20;2.50;;;34.30;59.50;;;;;;4898055;29;20143;-77
2022/07/04 07:37:33;;;;;;;4.10;1.95;;;34.50;58.60;;;;;;4881119;29;20048;-75
2022/07/04 07:40:01;;;;;;;7.35;2.50;;;35.10;57.40;;;;;;4898149;29;20429;-75
2022/07/04 07:42:30;;;;;;;11.20;2.60;;;35.60;57.50;;;;;;4898159;29;20083;-76
2022/07/04 07:44:58;;;;;;;3.90;1.98;;;35.90;55.50;;;;;;4880691;29;20104;-76
2022/07/04 07:47:25;;;;;;;9.05;2.13;;;36.40;55.50;;;;;;4898067;29;20052;-76
2022/07/04 07:49:53;;;;;;;11.20;2.33;;;36.50;55.80;;;;;;4881461;29;20147;-75
2022/07/04 07:52:20;;;;;;;10.27;2.50;;;36.90;53.40;;;;;;4880830;29;20417;-76
2022/07/04 07:54:49;;;;;;;6.22;2.00;;;36.90;51.90;;;;;;4880646;29;20052;-77
2022/07/04 07:57:16;;;;;;;8.45;2.22;;;36.90;51.60;;;;;;4880698;29;20518;-77
2022/07/04 07:59:43;;;;;;;4.72;1.83;;;37.00;52.10;;;;;;4864770;29;20151;-76
2022/07/04 08:06:22;;;;;;;9.38;2.03;;;36.40;53.80;;;;;;4911226;29;20056;-75
2022/07/04 08:08:50;;;;;;;6.63;1.70;;;36.60;51.80;;;;;;4882915;29;20059;-76
2022/07/04 08:11:19;;;;;;;4.07;1.60;;;36.70;51.50;;;;;;4915995;29;20060;-76
2022/07/04 08:13:47;;;;;;;11.65;1.73;;;37.00;52.20;;;;;;4916170;29;20054;-76
2022/07/04 08:16:15;;;;;;;8.38;1.70;;;37.50;50.40;;;;;;4914290;29;20366;-76
2022/07/04 08:18:42;;;;;;;5.85;1.73;;;37.40;49.40;;;;;;4901084;29;20420;-76
2022/07/04 08:21:09;;;;;;;11.40;1.95;;;37.40;49.30;;;;;;4897275;29;20494;-76
2022/07/04 08:23:37;;;;;;;3.65;1.45;;;37.00;49.30;;;;;;4910879;29;20480;-76
2022/07/04 08:26:05;;;;;;;6.78;2.00;;;36.90;49.20;;;;;;4897604;29;20064;-76
2022/07/04 08:28:34;;;;;;;7.95;1.80;;;36.70;50.30;;;;;;4901550;29;20056;-76
2022/07/04 08:31:01;;;;;;;6.05;2.00;;;36.40;50.90;;;;;;4873349;29;20056;-76
2022/07/04 08:33:29;;;;;;;7.70;2.08;;;36.80;49.60;;;;;;4887717;29;21031;-76
2022/07/04 08:35:57;;;;;;;5.20;2.20;;;37.10;50.00;;;;;;4888955;29;20151;-75
2022/07/04 08:38:25;;;;;;;5.05;2.13;;;37.40;50.70;;;;;;4905417;29;20059;-75
2022/07/04 08:40:58;;;;;;;6.68;1.52;;;37.90;48.00;;;;;;4903298;29;20049;-75
2022/07/04 08:43:28;;;;;;;6.60;2.10;;;38.40;48.10;;;;;;4903961;29;20099;-75
2022/07/04 08:45:59;;;;;;;7.28;2.03;;;38.70;47.10;;;;;;4889429;29;20059;-74
2022/07/04 08:48:27;;;;;;;5.85;2.08;;;38.50;47.40;;;;;;4903379;29;20044;-74
2022/07/04 08:50:58;;;;;;;8.52;1.75;;;38.50;47.20;;;;;;4912208;29;20143;-74
2022/07/04 08:53:29;;;;;;;11.18;1.63;;;38.30;48.80;;;;;;4915226;29;20615;-76
2022/07/04 08:58:43;;;;;;;7.30;1.90;;;38.90;47.20;;;;;;4914556;29;20052;-75
2022/07/04 09:01:14;;;;;;;2.97;1.45;;;39.00;45.80;;;;;;4880590;29;20051;-75
2022/07/04 09:03:43;;;;;;;5.95;2.53;;;38.70;47.00;;;;;;4888750;29;20080;-74
2022/07/04 09:06:11;;;;;;;7.13;3.55;;;38.60;46.40;;;;;;4906154;29;20139;-74
2022/07/04 09:08:38;;;;;;;5.22;1.70;;;38.30;48.00;;;;;;4895462;29;20575;-75
2022/07/04 09:11:06;;;;;;;6.68;2.10;;;38.80;47.60;;;;;;4915193;29;20063;-73
2022/07/04 09:13:34;;;;;;;9.60;2.33;;;39.60;46.60;;;;;;4915134;29;20142;-74
2022/07/04 09:16:02;;;;;;;7.97;1.90;;;40.20;45.60;;;;;;4896814;29;20048;-75
2022/07/04 09:18:33;;;;;;;6.28;1.95;;;40.30;44.60;;;;;;4914995;29;20103;-75
2022/07/04 09:21:01;;;;;;;3.75;1.95;;;39.50;44.70;;;;;;4898124;29;20104;-75
2022/07/04 09:23:30;;;;;;;9.57;2.38;;;38.00;48.10;;;;;;4915021;29;20044;-75
2022/07/04 09:26:11;;;;;;;6.93;2.20;;;36.70;48.80;;;;;;4915476;29;20142;-75
2022/07/04 09:28:40;;;;;;;3.97;1.98;;;35.60;50.50;;;;;;4915220;29;20052;-76
2022/07/04 09:31:18;;;;;;;7.65;3.10;;;34.70;52.60;;;;;;4897455;29;20123;-75
2022/07/04 09:33:50;;;;;;;7.18;2.22;;;33.90;53.60;;;;;;4912220;29;20068;-76
2022/07/04 09:36:19;;;;;;;8.23;2.13;;;33.30;54.10;;;;;;4912615;29;20352;-76
2022/07/04 09:38:46;;;;;;;6.88;2.50;;;33.90;54.10;;;;;;4895561;29;20075;-76
2022/07/04 09:41:26;;;;;;;11.98;1.90;;;35.50;52.60;;;;;;4912905;29;20158;-76
2022/07/04 09:44:02;;;;;;;5.70;1.90;;;36.90;50.00;;;;;;4914217;29;20051;-77
2022/07/04 09:46:30;;;;;;;5.85;1.85;;;36.30;49.70;;;;;;4914440;29;20410;-75
2022/07/04 09:48:58;;;;;;;6.85;2.25;;;36.30;51.20;;;;;;4914791;29;20056;-75
2022/07/04 09:51:43;;;;;;;5.00;1.85;;;35.80;50.70;;;;;;4914603;29;20060;-75
2022/07/04 09:54:25;;;;;;;6.63;1.90;;;34.70;52.30;;;;;;4914721;29;20052;-75
2022/07/04 09:56:54;;;;;;;7.55;2.38;;;34.70;52.20;;;;;;4897316;29;20048;-75
2022/07/04 09:59:22;;;;;;;8.70;2.78;;;34.40;53.40;;;;;;4897508;29;20416;-75
2022/07/04 10:01:49;;;;;;;6.80;2.15;;;35.00;53.90;;;;;;4914640;29;20428;-75
2022/07/04 10:04:21;;;;;;;9.63;2.92;;;34.90;52.00;;;;;;4914621;29;20052;-75
2022/07/04 10:06:48;;;;;;;4.30;2.00;;;34.20;52.50;;;;;;4914901;29;20048;-75
2022/07/04 10:09:19;;;;;;;7.80;1.70;;;33.70;53.80;;;;;;4897642;29;20051;-75
2022/07/04 10:11:47;;;;;;;9.98;1.85;;;34.70;52.20;;;;;;4882097;29;20059;-75
2022/07/04 10:14:16;;;;;;;3.03;2.30;;;36.00;51.30;;;;;;4897646;29;20512;-75
2022/07/04 10:16:43;;;;;;;2.78;1.42;;;37.00;51.20;;;;;;4914783;29;20056;-75
2022/07/04 10:19:12;;;;;;;1.83;1.70;;;38.10;48.10;;;;;;4914726;29;20135;-75
2022/07/04 10:21:41;;;;;;;4.28;1.80;;;39.20;47.40;;;;;;4914156;29;20060;-76
2022/07/04 10:24:09;;;;;;;6.43;1.58;;;40.00;47.00;;;;;;4897165;29;20067;-76
2022/07/04 10:26:36;;;;;;;2.30;1.80;;;40.50;44.80;;;;;;4914586;29;20062;-76
2022/07/04 10:29:04;;;;;;;4.72;1.65;;;40.60;44.60;;;;;;4897247;29;20048;-76
2022/07/04 10:31:32;;;;;;;4.35;1.50;;;40.40;45.80;;;;;;4914427;29;20525;-76
2022/07/04 10:34:01;;;;;;;4.30;1.70;;;40.10;45.80;;;;;;4914267;29;20052;-76
2022/07/04 10:36:30;;;;;;;5.53;1.80;;;40.40;45.80;;;;;;4914422;29;20043;-74
2022/07/04 10:39:00;;;;;;;6.32;1.67;;;40.80;45.30;;;;;;4914604;29;20649;-74
2022/07/04 10:41:29;;;;;;;2.92;2.35;;;41.20;45.10;;;;;;4897006;29;20062;-75
2022/07/04 10:44:03;;;;;;;1.80;1.70;;;41.60;45.10;;;;;;4897055;29;20052;-74
2022/07/04 10:46:44;;;;;;;5.07;1.50;;;41.50;44.40;;;;;;4897615;29;20051;-75
2022/07/04 10:49:25;;;;;;;4.53;1.65;;;41.50;44.90;;;;;;4915128;29;20060;-74
2022/07/04 10:51:56;;;;;;;4.05;1.63;;;41.70;44.90;;;;;;4907655;29;20088;-75
2022/07/04 10:54:31;;;;;;;3.08;1.63;;;41.90;44.40;;;;;;4900360;29;20048;-75
2022/07/04 10:57:09;;;;;;;5.15;1.50;;;42.30;44.50;;;;;;4917895;29;20067;-75
2022/07/04 10:59:38;;;;;;;7.57;1.90;;;42.60;44.90;;;;;;4918238;29;20406;-75
2022/07/04 11:02:26;;;;;;;2.70;1.73;;;42.70;44.60;;;;;;4900696;29;20052;-75
2022/07/04 11:04:56;;;;;;;4.43;1.55;;;42.90;42.90;;;;;;4900227;29;20087;-75
2022/07/04 11:07:57;;;;;;;3.55;1.75;;;43.20;43.40;;;;;;4917639;29;20091;-75
2022/07/04 11:10:26;;;;;;;1.90;1.50;;;43.30;42.70;;;;;;4916383;29;20099;-75
2022/07/04 11:13:08;;;;;;;5.07;1.48;;;43.20;42.90;;;;;;4917061;29;20056;-75
2022/07/04 11:16:01;;;;;;;4.55;1.50;;;43.30;42.50;;;;;;4916153;29;20066;-75
2022/07/04 11:18:30;;;;;;;5.60;2.03;;;43.30;43.10;;;;;;4917910;29;20052;-75
2022/07/04 11:20:57;;;;;;;4.28;1.60;;;43.50;43.40;;;;;;4917511;29;20128;-75
2022/07/04 11:23:25;;;;;;;2.92;1.90;;;43.80;43.00;;;;;;4917255;29;20460;-76
2022/07/04 11:25:56;;;;;;;4.05;2.28;;;43.70;42.50;;;;;;4917368;29;20193;-76
2022/07/04 11:28:24;;;;;;;4.43;2.10;;;43.60;42.90;;;;;;4917390;29;20150;-76
2022/07/04 11:30:52;;;;;;;5.82;2.28;;;43.70;43.50;;;;;;4917101;29;20052;-76
2022/07/04 11:33:21;;;;;;;4.53;2.10;;;43.80;43.70;;;;;;4914165;29;20127;-75
2022/07/04 11:36:04;;;;;;;4.80;1.90;;;43.70;43.70;;;;;;4908629;29;20139;-76
2022/07/04 11:38:45;;;;;;;4.75;2.00;;;43.50;43.20;;;;;;4898913;29;20154;-75
2022/07/04 11:46:47;;;;;;;2.50;1.92;;;43.60;43.60;;;;;;4898219;29;20055;-76
2022/07/04 11:49:14;;;;;;;3.85;1.80;;;43.30;44.00;;;;;;4896236;29;20301;-77
2022/07/04 11:51:47;;;;;;;3.47;1.90;;;41.90;45.10;;;;;;4895867;29;20556;-76
2022/07/04 11:54:15;;;;;;;5.88;2.15;;;42.00;46.00;;;;;;4896228;29;20048;-76
2022/07/04 11:56:44;;;;;;;5.72;2.75;;;42.60;44.60;;;;;;4896161;29;20062;-76
2022/07/04 11:59:13;;;;;;;3.25;2.30;;;43.00;44.20;;;;;;4895878;29;20076;-75
2022/07/04 12:01:41;;;;;;;5.68;1.92;;;43.20;44.50;;;;;;4896506;29;20056;-75
2022/07/04 12:04:17;;;;;;;3.67;1.70;;;43.20;44.60;;;;;;4896027;29;20056;-76
2022/07/04 12:06:45;;;;;;;9.15;2.13;;;43.30;44.50;;;;;;4878552;29;20631;-76
2022/07/04 12:09:13;;;;;;;3.65;2.38;;;43.50;44.70;;;;;;4895348;29;20112;-76
2022/07/04 12:11:58;;;;;;;4.70;2.22;;;43.60;44.40;;;;;;4895172;29;20060;-78
2022/07/04 12:14:27;;;;;;;3.63;1.85;;;43.90;44.10;;;;;;4878503;29;20089;-76
2022/07/04 12:17:14;;;;;;;6.35;1.92;;;44.00;44.10;;;;;;4895429;29;20060;-76
2022/07/04 12:19:52;;;;;;;3.67;2.28;;;43.90;42.90;;;;;;4880450;29;20045;-77
2022/07/04 12:22:33;;;;;;;4.90;1.73;;;44.00;43.20;;;;;;4897830;29;20055;-77
2022/07/04 12:25:01;;;;;;;;;;;43.90;42.80;;;;;;4897815;29;20080;-76
2022/07/04 12:27:30;;;;;;;4.18;2.35;;;44.00;42.40;;;;;;4897348;29;19931;-76
2022/07/04 12:29:59;;;;;;;6.93;2.10;;;44.20;42.60;;;;;;4897481;29;20456;-76
2022/07/04 12:32:44;;;;;;;4.95;2.28;;;44.40;42.40;;;;;;4897436;29;20052;-76
2022/07/04 12:35:26;;;;;;;9.45;2.30;;;44.50;42.30;;;;;;4880288;29;20056;-76
2022/07/04 12:38:02;;;;;;;3.60;2.65;;;44.20;42.40;;;;;;4879521;29;20071;-76
2022/07/04 12:40:30;;;;;;;6.97;2.78;;;44.00;42.30;;;;;;4880384;29;20048;-76
2022/07/04 12:42:59;;;;;;;3.65;2.10;;;44.00;42.20;;;;;;4896907;29;20052;-77
2022/07/04 12:45:27;;;;;;;5.88;2.40;;;44.00;42.40;;;;;;4895561;29;20104;-76
2022/07/04 12:47:56;;;;;;;3.95;1.98;;;44.10;42.80;;;;;;4879866;29;20052;-77
2022/07/04 12:50:27;;;;;;;2.90;2.13;;;44.20;42.40;;;;;;4896859;29;20062;-77
2022/07/04 12:52:54;;;;;;;7.93;2.35;;;44.40;42.50;;;;;;4896947;29;20506;-77
2022/07/04 12:55:22;;;;;;;3.47;1.98;;;44.50;41.70;;;;;;4896656;29;20052;-77
2022/07/04 12:57:49;;;;;;;6.05;2.30;;;44.50;41.50;;;;;;4864604;29;20060;-78
2022/07/04 13:00:18;;;;;;;7.03;2.25;;;44.50;41.20;;;;;;4880008;29;20057;-76
2022/07/04 13:02:45;;;;;;;7.85;2.30;;;44.60;41.50;;;;;;4896614;29;20063;-75
2022/07/04 13:05:13;;;;;;;3.72;2.17;;;44.50;41.80;;;;;;4879597;29;20100;-76
2022/07/04 13:07:41;;;;;;;6.70;2.50;;;44.50;42.20;;;;;;4879796;29;20087;-77
2022/07/04 13:10:09;;;;;;;3.85;2.05;;;44.50;41.20;;;;;;4896224;29;20063;-77